Aviation Digital Data Service (ADDS)

Output produced by METARs form (1552 UTC 20 March 2019)
found at http://www.aviationweather.gov/metar/data/
 
METAR text: LFOE 201530Z AUTO 35003KT 320V030 9999 OVC041 13/05 Q1034 NOSIG
Conditions at: LFOE (EVREUX/FAUVILLE , FR) observed 1530 UTC 20 March 2019
Temperature: 13.0°C (55°F)
Dewpoint: 5.0°C (41°F) [RH = 58%]
Pressure (altimeter): 30.53 inches Hg (1034.0 mb)
Winds: from the N (350 degrees) at 3 MPH (3 knots; 1.5 m/s)
Visibility: 6 or more miles (10+ km)
Ceiling: 4100 feet AGL
Clouds: overcast cloud deck at 4100 feet AGL
Weather: no significant weather observed at this time

METAR text: LFOE 201500Z AUTO 33003KT 270V020 9999 FEW036 OVC042 13/05 Q1034 NOSIG
Conditions at: LFOE (EVREUX/FAUVILLE , FR) observed 1500 UTC 20 March 2019
Temperature: 13.0°C (55°F)
Dewpoint: 5.0°C (41°F) [RH = 58%]
Pressure (altimeter): 30.53 inches Hg (1034.0 mb)
Winds: from the NNW (330 degrees) at 3 MPH (3 knots; 1.5 m/s)
Visibility: 6 or more miles (10+ km)
Ceiling: 4200 feet AGL
Clouds: few clouds at 3600 feet AGL
overcast cloud deck at 4200 feet AGL
Weather: no significant weather observed at this time

METAR text: LFOE 201430Z AUTO VRB01KT 9999 OVC041 13/05 Q1034 NOSIG
Conditions at: LFOE (EVREUX/FAUVILLE , FR) observed 1430 UTC 20 March 2019
Temperature: 13.0°C (55°F)
Dewpoint: 5.0°C (41°F) [RH = 58%]
Pressure (altimeter): 30.53 inches Hg (1034.0 mb)
Winds: variable direction winds at 1 MPH (1 knots; 0.5 m/s)
Visibility: 6 or more miles (10+ km)
Ceiling: 4100 feet AGL
Clouds: overcast cloud deck at 4100 feet AGL
Weather: no significant weather observed at this time

METAR text: LFOE 201400Z AUTO VRB03KT 9999 SCT035 BKN042 OVC170 13/05 Q1034 NOSIG
Conditions at: LFOE (EVREUX/FAUVILLE , FR) observed 1400 UTC 20 March 2019
Temperature: 13.0°C (55°F)
Dewpoint: 5.0°C (41°F) [RH = 58%]
Pressure (altimeter): 30.53 inches Hg (1034.0 mb)
Winds: variable direction winds at 3 MPH (3 knots; 1.5 m/s)
Visibility: 6 or more miles (10+ km)
Ceiling: 4200 feet AGL
Clouds: scattered clouds at 3500 feet AGL
broken clouds at 4200 feet AGL
overcast cloud deck at 17000 feet AGL
Weather: no significant weather observed at this time

METAR text: LFOE 201330Z AUTO VRB02KT 9999 BKN037 OVC044 13/04 Q1034 NOSIG
Conditions at: LFOE (EVREUX/FAUVILLE , FR) observed 1330 UTC 20 March 2019
Temperature: 13.0°C (55°F)
Dewpoint: 4.0°C (39°F) [RH = 54%]
Pressure (altimeter): 30.53 inches Hg (1034.0 mb)
Winds: variable direction winds at 2 MPH (2 knots; 1.0 m/s)
Visibility: 6 or more miles (10+ km)
Ceiling: 3700 feet AGL
Clouds: broken clouds at 3700 feet AGL
overcast cloud deck at 4400 feet AGL
Weather: no significant weather observed at this time

METAR text: LFOE 201300Z AUTO 18004KT 130V230 9999 FEW034 BKN043 OVC170 13/05 Q1034 NOSIG
Conditions at: LFOE (EVREUX/FAUVILLE , FR) observed 1300 UTC 20 March 2019
Temperature: 13.0°C (55°F)
Dewpoint: 5.0°C (41°F) [RH = 58%]
Pressure (altimeter): 30.53 inches Hg (1034.0 mb)
Winds: from the S (180 degrees) at 5 MPH (4 knots; 2.1 m/s)
Visibility: 6 or more miles (10+ km)
Ceiling: 4300 feet AGL
Clouds: few clouds at 3400 feet AGL
broken clouds at 4300 feet AGL
overcast cloud deck at 17000 feet AGL
Weather: no significant weather observed at this time

METAR text: LFOE 201230Z AUTO VRB03KT 9999 BKN032 OVC038 12/06 Q1034 NOSIG
Conditions at: LFOE (EVREUX/FAUVILLE , FR) observed 1230 UTC 20 March 2019
Temperature: 12.0°C (54°F)
Dewpoint: 6.0°C (43°F) [RH = 67%]
Pressure (altimeter): 30.53 inches Hg (1034.0 mb)
Winds: variable direction winds at 3 MPH (3 knots; 1.5 m/s)
Visibility: 6 or more miles (10+ km)
Ceiling: 3200 feet AGL
Clouds: broken clouds at 3200 feet AGL
overcast cloud deck at 3800 feet AGL
Weather: no significant weather observed at this time

METAR text: LFOE 201200Z AUTO 16004KT 100V220 9999 SCT033 OVC042 13/05 Q1034 NOSIG
Conditions at: LFOE (EVREUX/FAUVILLE , FR) observed 1200 UTC 20 March 2019
Temperature: 13.0°C (55°F)
Dewpoint: 5.0°C (41°F) [RH = 58%]
Pressure (altimeter): 30.53 inches Hg (1034.0 mb)
Winds: from the SSE (160 degrees) at 5 MPH (4 knots; 2.1 m/s)
Visibility: 6 or more miles (10+ km)
Ceiling: 4200 feet AGL
Clouds: scattered clouds at 3300 feet AGL
overcast cloud deck at 4200 feet AGL
Weather: no significant weather observed at this time

METAR text: LFOE 201130Z AUTO VRB02KT 9999 FEW046 12/06 Q1034 NOSIG
Conditions at: LFOE (EVREUX/FAUVILLE , FR) observed 1130 UTC 20 March 2019
Temperature: 12.0°C (54°F)
Dewpoint: 6.0°C (43°F) [RH = 67%]
Pressure (altimeter): 30.53 inches Hg (1034.0 mb)
Winds: variable direction winds at 2 MPH (2 knots; 1.0 m/s)
Visibility: 6 or more miles (10+ km)
Ceiling: at least 12,000 feet AGL
Clouds: few clouds at 4600 feet AGL
Weather: no significant weather observed at this time

METAR text: LFOE 201100Z AUTO VRB02KT 9999 FEW034 BKN042 12/06 Q1034 NOSIG
Conditions at: LFOE (EVREUX/FAUVILLE , FR) observed 1100 UTC 20 March 2019
Temperature: 12.0°C (54°F)
Dewpoint: 6.0°C (43°F) [RH = 67%]
Pressure (altimeter): 30.53 inches Hg (1034.0 mb)
Winds: variable direction winds at 2 MPH (2 knots; 1.0 m/s)
Visibility: 6 or more miles (10+ km)
Ceiling: 4200 feet AGL
Clouds: few clouds at 3400 feet AGL
broken clouds at 4200 feet AGL
Weather: no significant weather observed at this time

METAR text: LFOE 201030Z AUTO VRB02KT 9999 BKN030 OVC041 12/05 Q1035 NOSIG
Conditions at: LFOE (EVREUX/FAUVILLE , FR) observed 1030 UTC 20 March 2019
Temperature: 12.0°C (54°F)
Dewpoint: 5.0°C (41°F) [RH = 62%]
Pressure (altimeter): 30.56 inches Hg (1035.0 mb)
Winds: variable direction winds at 2 MPH (2 knots; 1.0 m/s)
Visibility: 6 or more miles (10+ km)
Ceiling: 3000 feet AGL
Clouds: broken clouds at 3000 feet AGL
overcast cloud deck at 4100 feet AGL
Weather: no significant weather observed at this time

METAR text: LFOE 201000Z AUTO VRB02KT 9999 FEW027 11/05 Q1035 NOSIG
Conditions at: LFOE (EVREUX/FAUVILLE , FR) observed 1000 UTC 20 March 2019
Temperature: 11.0°C (52°F)
Dewpoint: 5.0°C (41°F) [RH = 66%]
Pressure (altimeter): 30.56 inches Hg (1035.0 mb)
Winds: variable direction winds at 2 MPH (2 knots; 1.0 m/s)
Visibility: 6 or more miles (10+ km)
Ceiling: at least 12,000 feet AGL
Clouds: few clouds at 2700 feet AGL
Weather: no significant weather observed at this time

METAR text: LFOE 200930Z AUTO VRB03KT CAVOK 12/06 Q1035 NOSIG
Conditions at: LFOE (EVREUX/FAUVILLE , FR) observed 0930 UTC 20 March 2019
Temperature: 12.0°C (54°F)
Dewpoint: 6.0°C (43°F) [RH = 67%]
Pressure (altimeter): 30.56 inches Hg (1035.0 mb)
Winds: variable direction winds at 3 MPH (3 knots; 1.5 m/s)
Visibility: 6 or more miles (10+ km)
Ceiling: ceiling and visibility are OK
Clouds: unknown
Weather: no significant weather observed at this time

METAR text: LFOE 200900Z AUTO VRB02KT CAVOK 12/07 Q1034 NOSIG
Conditions at: LFOE (EVREUX/FAUVILLE , FR) observed 0900 UTC 20 March 2019
Temperature: 12.0°C (54°F)
Dewpoint: 7.0°C (45°F) [RH = 71%]
Pressure (altimeter): 30.53 inches Hg (1034.0 mb)
Winds: variable direction winds at 2 MPH (2 knots; 1.0 m/s)
Visibility: 6 or more miles (10+ km)
Ceiling: ceiling and visibility are OK
Clouds: unknown
Weather: no significant weather observed at this time

METAR text: LFOE 200830Z AUTO VRB03KT CAVOK 10/06 Q1034 NOSIG
Conditions at: LFOE (EVREUX/FAUVILLE , FR) observed 0830 UTC 20 March 2019
Temperature: 10.0°C (50°F)
Dewpoint: 6.0°C (43°F) [RH = 76%]
Pressure (altimeter): 30.53 inches Hg (1034.0 mb)
Winds: variable direction winds at 3 MPH (3 knots; 1.5 m/s)
Visibility: 6 or more miles (10+ km)
Ceiling: ceiling and visibility are OK
Clouds: unknown
Weather: no significant weather observed at this time

METAR text: LFOE 200800Z AUTO 27002KT 9000 NSC 08/06 Q1034 NOSIG
Conditions at: LFOE (EVREUX/FAUVILLE , FR) observed 0800 UTC 20 March 2019
Temperature: 8.0°C (46°F)
Dewpoint: 6.0°C (43°F) [RH = 87%]
Pressure (altimeter): 30.53 inches Hg (1034.0 mb)
Winds: from the W (270 degrees) at 2 MPH (2 knots; 1.0 m/s)
Visibility: 6 miles ( 9 km)
Ceiling: at least 12,000 feet AGL
Clouds: sky clear below 12,000 feet AGL
Weather: no significant weather observed at this time

METAR text: LFOE 200730Z AUTO 26003KT 8000 NSC 06/06 Q1034 NOSIG
Conditions at: LFOE (EVREUX/FAUVILLE , FR) observed 0730 UTC 20 March 2019
Temperature: 6.0°C (43°F)
Dewpoint: 6.0°C (43°F) [RH = 100%]
Pressure (altimeter): 30.53 inches Hg (1034.0 mb)
Winds: from the W (260 degrees) at 3 MPH (3 knots; 1.5 m/s)
Visibility: 5 miles ( 8 km)
Ceiling: at least 12,000 feet AGL
Clouds: sky clear below 12,000 feet AGL
Weather: no significant weather observed at this time

METAR text: LFOE 200700Z AUTO 21003KT 4500 BR NSC 04/04 Q1033 TEMPO VV/// BECMG 8000 NSW
Conditions at: LFOE (EVREUX/FAUVILLE , FR) observed 0700 UTC 20 March 2019
Temperature: 4.0°C (39°F)
Dewpoint: 4.0°C (39°F) [RH = 100%]
Pressure (altimeter): 30.50 inches Hg (1033.0 mb)
Winds: from the SSW (210 degrees) at 3 MPH (3 knots; 1.5 m/s)
Visibility: 2.80 miles (4.51 km)
Ceiling: at least 12,000 feet AGL
Clouds: sky clear below 12,000 feet AGL
Weather: BR  (mist)

METAR text: LFOE 200630Z AUTO 22003KT 4800 BR NSC 04/03 Q1033 TEMPO VV/// BECMG 8000 NSW
Conditions at: LFOE (EVREUX/FAUVILLE , FR) observed 0630 UTC 20 March 2019
Temperature: 4.0°C (39°F)
Dewpoint: 3.0°C (37°F) [RH = 93%]
Pressure (altimeter): 30.50 inches Hg (1033.0 mb)
Winds: from the SW (220 degrees) at 3 MPH (3 knots; 1.5 m/s)
Visibility: 2.98 miles (4.80 km)
Ceiling: at least 12,000 feet AGL
Clouds: sky clear below 12,000 feet AGL
Weather: BR  (mist)

METAR text: LFOE 200600Z AUTO 22002KT 5000 2200 BR NSC 04/03 Q1033 TEMPO 0500 BCFG VV///
Conditions at: LFOE (EVREUX/FAUVILLE , FR) observed 0600 UTC 20 March 2019
Temperature: 4.0°C (39°F)
Dewpoint: 3.0°C (37°F) [RH = 93%]
Pressure (altimeter): 30.50 inches Hg (1033.0 mb)
Winds: from the SW (220 degrees) at 2 MPH (2 knots; 1.0 m/s)
Visibility: 3 miles ( 5 km)
Ceiling: at least 12,000 feet AGL
Clouds: sky clear below 12,000 feet AGL
Weather: BR  (mist)

METAR text: LFOE 200530Z AUTO 20003KT 8000 NSC 05/04 Q1033 TEMPO 0500 BCFG VV///
Conditions at: LFOE (EVREUX/FAUVILLE , FR) observed 0530 UTC 20 March 2019
Temperature: 5.0°C (41°F)
Dewpoint: 4.0°C (39°F) [RH = 93%]
Pressure (altimeter): 30.50 inches Hg (1033.0 mb)
Winds: from the SSW (200 degrees) at 3 MPH (3 knots; 1.5 m/s)
Visibility: 5 miles ( 8 km)
Ceiling: at least 12,000 feet AGL
Clouds: sky clear below 12,000 feet AGL
Weather: no significant weather observed at this time

METAR text: LFOE 200500Z AUTO 00000KT 8000 NSC 05/04 Q1033 TEMPO 0500 BCFG VV///
Conditions at: LFOE (EVREUX/FAUVILLE , FR) observed 0500 UTC 20 March 2019
Temperature: 5.0°C (41°F)
Dewpoint: 4.0°C (39°F) [RH = 93%]
Pressure (altimeter): 30.50 inches Hg (1033.0 mb)
Winds: calm
Visibility: 5 miles ( 8 km)
Ceiling: at least 12,000 feet AGL
Clouds: sky clear below 12,000 feet AGL
Weather: no significant weather observed at this time

METAR text: LFOE 200430Z AUTO 00000KT 8000 NSC 05/04 Q1033 TEMPO 0500 BCFG VV///
Conditions at: LFOE (EVREUX/FAUVILLE , FR) observed 0430 UTC 20 March 2019
Temperature: 5.0°C (41°F)
Dewpoint: 4.0°C (39°F) [RH = 93%]
Pressure (altimeter): 30.50 inches Hg (1033.0 mb)
Winds: calm
Visibility: 5 miles ( 8 km)
Ceiling: at least 12,000 feet AGL
Clouds: sky clear below 12,000 feet AGL
Weather: no significant weather observed at this time

METAR text: LFOE 200400Z AUTO 19003KT 9000 NSC 05/04 Q1032 TEMPO 0500 BCFG VV///
Conditions at: LFOE (EVREUX/FAUVILLE , FR) observed 0400 UTC 20 March 2019
Temperature: 5.0°C (41°F)
Dewpoint: 4.0°C (39°F) [RH = 93%]
Pressure (altimeter): 30.47 inches Hg (1032.0 mb)
Winds: from the S (190 degrees) at 3 MPH (3 knots; 1.5 m/s)
Visibility: 6 miles ( 9 km)
Ceiling: at least 12,000 feet AGL
Clouds: sky clear below 12,000 feet AGL
Weather: no significant weather observed at this time

METAR text: LFOE 200330Z AUTO 19001KT 8000 NSC 05/04 Q1033 TEMPO 0500 BCFG VV///
Conditions at: LFOE (EVREUX/FAUVILLE , FR) observed 0330 UTC 20 March 2019
Temperature: 5.0°C (41°F)
Dewpoint: 4.0°C (39°F) [RH = 93%]
Pressure (altimeter): 30.50 inches Hg (1033.0 mb)
Winds: from the S (190 degrees) at 1 MPH (1 knots; 0.5 m/s)
Visibility: 5 miles ( 8 km)
Ceiling: at least 12,000 feet AGL
Clouds: sky clear below 12,000 feet AGL
Weather: no significant weather observed at this time

METAR text: LFOE 200300Z AUTO 19002KT 8000 NSC 05/04 Q1032 TEMPO 0500 BCFG VV///
Conditions at: LFOE (EVREUX/FAUVILLE , FR) observed 0300 UTC 20 March 2019
Temperature: 5.0°C (41°F)
Dewpoint: 4.0°C (39°F) [RH = 93%]
Pressure (altimeter): 30.47 inches Hg (1032.0 mb)
Winds: from the S (190 degrees) at 2 MPH (2 knots; 1.0 m/s)
Visibility: 5 miles ( 8 km)
Ceiling: at least 12,000 feet AGL
Clouds: sky clear below 12,000 feet AGL
Weather: no significant weather observed at this time

METAR text: LFOE 200230Z AUTO 17002KT 8000 NSC 05/04 Q1032 TEMPO 0500 BCFG VV///
Conditions at: LFOE (EVREUX/FAUVILLE , FR) observed 0230 UTC 20 March 2019
Temperature: 5.0°C (41°F)
Dewpoint: 4.0°C (39°F) [RH = 93%]
Pressure (altimeter): 30.47 inches Hg (1032.0 mb)
Winds: from the S (170 degrees) at 2 MPH (2 knots; 1.0 m/s)
Visibility: 5 miles ( 8 km)
Ceiling: at least 12,000 feet AGL
Clouds: sky clear below 12,000 feet AGL
Weather: no significant weather observed at this time

METAR text: LFOE 200200Z AUTO 24004KT 7000 NSC 05/04 Q1032 TEMPO 0500 BCFG VV///
Conditions at: LFOE (EVREUX/FAUVILLE , FR) observed 0200 UTC 20 March 2019
Temperature: 5.0°C (41°F)
Dewpoint: 4.0°C (39°F) [RH = 93%]
Pressure (altimeter): 30.47 inches Hg (1032.0 mb)
Winds: from the WSW (240 degrees) at 5 MPH (4 knots; 2.1 m/s)
Visibility: 4 miles ( 7 km)
Ceiling: at least 12,000 feet AGL
Clouds: sky clear below 12,000 feet AGL
Weather: no significant weather observed at this time

METAR text: LFOE 200130Z AUTO 25003KT 8000 NSC 05/05 Q1032 TEMPO 0500 BCFG VV///
Conditions at: LFOE (EVREUX/FAUVILLE , FR) observed 0130 UTC 20 March 2019
Temperature: 5.0°C (41°F)
Dewpoint: 5.0°C (41°F) [RH = 100%]
Pressure (altimeter): 30.47 inches Hg (1032.0 mb)
Winds: from the WSW (250 degrees) at 3 MPH (3 knots; 1.5 m/s)
Visibility: 5 miles ( 8 km)
Ceiling: at least 12,000 feet AGL
Clouds: sky clear below 12,000 feet AGL
Weather: no significant weather observed at this time

METAR text: LFOE 200100Z AUTO VRB02KT 7000 NSC 05/04 Q1033 TEMPO 4000 BR
Conditions at: LFOE (EVREUX/FAUVILLE , FR) observed 0100 UTC 20 March 2019
Temperature: 5.0°C (41°F)
Dewpoint: 4.0°C (39°F) [RH = 93%]
Pressure (altimeter): 30.50 inches Hg (1033.0 mb)
Winds: variable direction winds at 2 MPH (2 knots; 1.0 m/s)
Visibility: 4 miles ( 7 km)
Ceiling: at least 12,000 feet AGL
Clouds: sky clear below 12,000 feet AGL
Weather: no significant weather observed at this time

METAR text: LFOE 200030Z AUTO 22003KT 7000 NSC 04/04 Q1032 TEMPO 4000 BR
Conditions at: LFOE (EVREUX/FAUVILLE , FR) observed 0030 UTC 20 March 2019
Temperature: 4.0°C (39°F)
Dewpoint: 4.0°C (39°F) [RH = 100%]
Pressure (altimeter): 30.47 inches Hg (1032.0 mb)
Winds: from the SW (220 degrees) at 3 MPH (3 knots; 1.5 m/s)
Visibility: 4 miles ( 7 km)
Ceiling: at least 12,000 feet AGL
Clouds: sky clear below 12,000 feet AGL
Weather: no significant weather observed at this time

METAR text: LFOE 200000Z AUTO 21003KT 8000 NSC 05/04 Q1032 TEMPO 4000 BR
Conditions at: LFOE (EVREUX/FAUVILLE , FR) observed 0000 UTC 20 March 2019
Temperature: 5.0°C (41°F)
Dewpoint: 4.0°C (39°F) [RH = 93%]
Pressure (altimeter): 30.47 inches Hg (1032.0 mb)
Winds: from the SSW (210 degrees) at 3 MPH (3 knots; 1.5 m/s)
Visibility: 5 miles ( 8 km)
Ceiling: at least 12,000 feet AGL
Clouds: sky clear below 12,000 feet AGL
Weather: no significant weather observed at this time

METAR text: LFOE 192330Z AUTO 21004KT 7000 NSC 05/04 Q1032 TEMPO 4000 BR
Conditions at: LFOE (EVREUX/FAUVILLE , FR) observed 2330 UTC 19 March 2019
Temperature: 5.0°C (41°F)
Dewpoint: 4.0°C (39°F) [RH = 93%]
Pressure (altimeter): 30.47 inches Hg (1032.0 mb)
Winds: from the SSW (210 degrees) at 5 MPH (4 knots; 2.1 m/s)
Visibility: 4 miles ( 7 km)
Ceiling: at least 12,000 feet AGL
Clouds: sky clear below 12,000 feet AGL
Weather: no significant weather observed at this time

METAR text: LFOE 192300Z AUTO 22002KT 9000 NSC 06/05 Q1032 TEMPO 4000 BR
Conditions at: LFOE (EVREUX/FAUVILLE , FR) observed 2300 UTC 19 March 2019
Temperature: 6.0°C (43°F)
Dewpoint: 5.0°C (41°F) [RH = 93%]
Pressure (altimeter): 30.47 inches Hg (1032.0 mb)
Winds: from the SW (220 degrees) at 2 MPH (2 knots; 1.0 m/s)
Visibility: 6 miles ( 9 km)
Ceiling: at least 12,000 feet AGL
Clouds: sky clear below 12,000 feet AGL
Weather: no significant weather observed at this time

METAR text: LFOE 192230Z AUTO 25002KT 9000 NSC 06/05 Q1032 TEMPO 4000 BR
Conditions at: LFOE (EVREUX/FAUVILLE , FR) observed 2230 UTC 19 March 2019
Temperature: 6.0°C (43°F)
Dewpoint: 5.0°C (41°F) [RH = 93%]
Pressure (altimeter): 30.47 inches Hg (1032.0 mb)
Winds: from the WSW (250 degrees) at 2 MPH (2 knots; 1.0 m/s)
Visibility: 6 miles ( 9 km)
Ceiling: at least 12,000 feet AGL
Clouds: sky clear below 12,000 feet AGL
Weather: no significant weather observed at this time

METAR text: LFOE 192200Z AUTO 26001KT CAVOK 06/05 Q1032 NOSIG
Conditions at: LFOE (EVREUX/FAUVILLE , FR) observed 2200 UTC 19 March 2019
Temperature: 6.0°C (43°F)
Dewpoint: 5.0°C (41°F) [RH = 93%]
Pressure (altimeter): 30.47 inches Hg (1032.0 mb)
Winds: from the W (260 degrees) at 1 MPH (1 knots; 0.5 m/s)
Visibility: 6 or more miles (10+ km)
Ceiling: ceiling and visibility are OK
Clouds: unknown
Weather: no significant weather observed at this time

METAR text: LFOE 192130Z AUTO 26003KT 9000 NSC 06/04 Q1032 NOSIG
Conditions at: LFOE (EVREUX/FAUVILLE , FR) observed 2130 UTC 19 March 2019
Temperature: 6.0°C (43°F)
Dewpoint: 4.0°C (39°F) [RH = 87%]
Pressure (altimeter): 30.47 inches Hg (1032.0 mb)
Winds: from the W (260 degrees) at 3 MPH (3 knots; 1.5 m/s)
Visibility: 6 miles ( 9 km)
Ceiling: at least 12,000 feet AGL
Clouds: sky clear below 12,000 feet AGL
Weather: no significant weather observed at this time

METAR text: LFOE 192100Z AUTO 27002KT 9000 NSC 06/04 Q1032 NOSIG
Conditions at: LFOE (EVREUX/FAUVILLE , FR) observed 2100 UTC 19 March 2019
Temperature: 6.0°C (43°F)
Dewpoint: 4.0°C (39°F) [RH = 87%]
Pressure (altimeter): 30.47 inches Hg (1032.0 mb)
Winds: from the W (270 degrees) at 2 MPH (2 knots; 1.0 m/s)
Visibility: 6 miles ( 9 km)
Ceiling: at least 12,000 feet AGL
Clouds: sky clear below 12,000 feet AGL
Weather: no significant weather observed at this time

METAR text: LFOE 192030Z AUTO 25002KT CAVOK 07/05 Q1031 NOSIG
Conditions at: LFOE (EVREUX/FAUVILLE , FR) observed 2030 UTC 19 March 2019
Temperature: 7.0°C (45°F)
Dewpoint: 5.0°C (41°F) [RH = 87%]
Pressure (altimeter): 30.44 inches Hg (1031.0 mb)
Winds: from the WSW (250 degrees) at 2 MPH (2 knots; 1.0 m/s)
Visibility: 6 or more miles (10+ km)
Ceiling: ceiling and visibility are OK
Clouds: unknown
Weather: no significant weather observed at this time

METAR text: LFOE 192000Z AUTO 26001KT CAVOK 08/05 Q1031 NOSIG
Conditions at: LFOE (EVREUX/FAUVILLE , FR) observed 2000 UTC 19 March 2019
Temperature: 8.0°C (46°F)
Dewpoint: 5.0°C (41°F) [RH = 81%]
Pressure (altimeter): 30.44 inches Hg (1031.0 mb)
Winds: from the W (260 degrees) at 1 MPH (1 knots; 0.5 m/s)
Visibility: 6 or more miles (10+ km)
Ceiling: ceiling and visibility are OK
Clouds: unknown
Weather: no significant weather observed at this time

METAR text: LFOE 191930Z AUTO 00000KT CAVOK 09/05 Q1031 NOSIG
Conditions at: LFOE (EVREUX/FAUVILLE , FR) observed 1930 UTC 19 March 2019
Temperature: 9.0°C (48°F)
Dewpoint: 5.0°C (41°F) [RH = 76%]
Pressure (altimeter): 30.44 inches Hg (1031.0 mb)
Winds: calm
Visibility: 6 or more miles (10+ km)
Ceiling: ceiling and visibility are OK
Clouds: unknown
Weather: no significant weather observed at this time

METAR text: LFOE 191900Z AUTO 30001KT CAVOK 09/05 Q1031 NOSIG
Conditions at: LFOE (EVREUX/FAUVILLE , FR) observed 1900 UTC 19 March 2019
Temperature: 9.0°C (48°F)
Dewpoint: 5.0°C (41°F) [RH = 76%]
Pressure (altimeter): 30.44 inches Hg (1031.0 mb)
Winds: from the WNW (300 degrees) at 1 MPH (1 knots; 0.5 m/s)
Visibility: 6 or more miles (10+ km)
Ceiling: ceiling and visibility are OK
Clouds: unknown
Weather: no significant weather observed at this time

METAR text: LFOE 191830Z AUTO 28002KT CAVOK 09/05 Q1030 NOSIG
Conditions at: LFOE (EVREUX/FAUVILLE , FR) observed 1830 UTC 19 March 2019
Temperature: 9.0°C (48°F)
Dewpoint: 5.0°C (41°F) [RH = 76%]
Pressure (altimeter): 30.41 inches Hg (1030.0 mb)
Winds: from the W (280 degrees) at 2 MPH (2 knots; 1.0 m/s)
Visibility: 6 or more miles (10+ km)
Ceiling: ceiling and visibility are OK
Clouds: unknown
Weather: no significant weather observed at this time

METAR text: LFOE 191800Z AUTO 30003KT CAVOK 10/05 Q1030 NOSIG
Conditions at: LFOE (EVREUX/FAUVILLE , FR) observed 1800 UTC 19 March 2019
Temperature: 10.0°C (50°F)
Dewpoint: 5.0°C (41°F) [RH = 71%]
Pressure (altimeter): 30.41 inches Hg (1030.0 mb)
Winds: from the WNW (300 degrees) at 3 MPH (3 knots; 1.5 m/s)
Visibility: 6 or more miles (10+ km)
Ceiling: ceiling and visibility are OK
Clouds: unknown
Weather: no significant weather observed at this time

METAR text: LFOE 191730Z AUTO 31003KT 9999 FEW028 OVC054 10/05 Q1030 NOSIG
Conditions at: LFOE (EVREUX/FAUVILLE , FR) observed 1730 UTC 19 March 2019
Temperature: 10.0°C (50°F)
Dewpoint: 5.0°C (41°F) [RH = 71%]
Pressure (altimeter): 30.41 inches Hg (1030.0 mb)
Winds: from the NW (310 degrees) at 3 MPH (3 knots; 1.5 m/s)
Visibility: 6 or more miles (10+ km)
Ceiling: 5400 feet AGL
Clouds: few clouds at 2800 feet AGL
overcast cloud deck at 5400 feet AGL
Weather: no significant weather observed at this time

METAR text: LFOE 191700Z AUTO 34004KT 300V010 9999 BKN028 BKN037 OVC056 11/05 Q1029 NOSIG
Conditions at: LFOE (EVREUX/FAUVILLE , FR) observed 1700 UTC 19 March 2019
Temperature: 11.0°C (52°F)
Dewpoint: 5.0°C (41°F) [RH = 66%]
Pressure (altimeter): 30.38 inches Hg (1029.0 mb)
Winds: from the NNW (340 degrees) at 5 MPH (4 knots; 2.1 m/s)
Visibility: 6 or more miles (10+ km)
Ceiling: 2800 feet AGL
Clouds: broken clouds at 2800 feet AGL
broken clouds at 3700 feet AGL
overcast cloud deck at 5600 feet AGL
Weather: no significant weather observed at this time

METAR text: LFOE 191630Z AUTO 27004KT 9999 SCT032 OVC056 11/04 Q1029 NOSIG
Conditions at: LFOE (EVREUX/FAUVILLE , FR) observed 1630 UTC 19 March 2019
Temperature: 11.0°C (52°F)
Dewpoint: 4.0°C (39°F) [RH = 62%]
Pressure (altimeter): 30.38 inches Hg (1029.0 mb)
Winds: from the W (270 degrees) at 5 MPH (4 knots; 2.1 m/s)
Visibility: 6 or more miles (10+ km)
Ceiling: 5600 feet AGL
Clouds: scattered clouds at 3200 feet AGL
overcast cloud deck at 5600 feet AGL
Weather: no significant weather observed at this time

METAR text: LFOE 191600Z AUTO 26005KT 230V290 CAVOK 11/04 Q1029 NOSIG
Conditions at: LFOE (EVREUX/FAUVILLE , FR) observed 1600 UTC 19 March 2019
Temperature: 11.0°C (52°F)
Dewpoint: 4.0°C (39°F) [RH = 62%]
Pressure (altimeter): 30.38 inches Hg (1029.0 mb)
Winds: from the W (260 degrees) at 6 MPH (5 knots; 2.6 m/s)
Visibility: 6 or more miles (10+ km)
Ceiling: ceiling and visibility are OK
Clouds: unknown
Weather: no significant weather observed at this time

METAR text: LFOE 191530Z AUTO 27004KT 230V310 9999 BKN029 OVC054 11/04 Q1029 NOSIG
Conditions at: LFOE (EVREUX/FAUVILLE , FR) observed 1530 UTC 19 March 2019
Temperature: 11.0°C (52°F)
Dewpoint: 4.0°C (39°F) [RH = 62%]
Pressure (altimeter): 30.38 inches Hg (1029.0 mb)
Winds: from the W (270 degrees) at 5 MPH (4 knots; 2.1 m/s)
Visibility: 6 or more miles (10+ km)
Ceiling: 2900 feet AGL
Clouds: broken clouds at 2900 feet AGL
overcast cloud deck at 5400 feet AGL
Weather: no significant weather observed at this time

METAR text: LFOE 191500Z AUTO VRB03KT 9999 FEW029 BKN056 12/04 Q1029 NOSIG
Conditions at: LFOE (EVREUX/FAUVILLE , FR) observed 1500 UTC 19 March 2019
Temperature: 12.0°C (54°F)
Dewpoint: 4.0°C (39°F) [RH = 58%]
Pressure (altimeter): 30.38 inches Hg (1029.0 mb)
Winds: variable direction winds at 3 MPH (3 knots; 1.5 m/s)
Visibility: 6 or more miles (10+ km)
Ceiling: 5600 feet AGL
Clouds: few clouds at 2900 feet AGL
broken clouds at 5600 feet AGL
Weather: no significant weather observed at this time

METAR text: LFOE 191430Z AUTO 29004KT 250V340 9999 SCT030 OVC054 11/04 Q1029 NOSIG
Conditions at: LFOE (EVREUX/FAUVILLE , FR) observed 1430 UTC 19 March 2019
Temperature: 11.0°C (52°F)
Dewpoint: 4.0°C (39°F) [RH = 62%]
Pressure (altimeter): 30.38 inches Hg (1029.0 mb)
Winds: from the WNW (290 degrees) at 5 MPH (4 knots; 2.1 m/s)
Visibility: 6 or more miles (10+ km)
Ceiling: 5400 feet AGL
Clouds: scattered clouds at 3000 feet AGL
overcast cloud deck at 5400 feet AGL
Weather: no significant weather observed at this time

METAR text: LFOE 191400Z AUTO 31004KT 280V340 9999 FEW027 OVC048 11/04 Q1029 NOSIG
Conditions at: LFOE (EVREUX/FAUVILLE , FR) observed 1400 UTC 19 March 2019
Temperature: 11.0°C (52°F)
Dewpoint: 4.0°C (39°F) [RH = 62%]
Pressure (altimeter): 30.38 inches Hg (1029.0 mb)
Winds: from the NW (310 degrees) at 5 MPH (4 knots; 2.1 m/s)
Visibility: 6 or more miles (10+ km)
Ceiling: 4800 feet AGL
Clouds: few clouds at 2700 feet AGL
overcast cloud deck at 4800 feet AGL
Weather: no significant weather observed at this time

METAR text: LFOE 191330Z AUTO 31003KT 270V350 9999 SCT027 SCT038 OVC050 10/04 Q1029 NOSIG
Conditions at: LFOE (EVREUX/FAUVILLE , FR) observed 1330 UTC 19 March 2019
Temperature: 10.0°C (50°F)
Dewpoint: 4.0°C (39°F) [RH = 66%]
Pressure (altimeter): 30.38 inches Hg (1029.0 mb)
Winds: from the NW (310 degrees) at 3 MPH (3 knots; 1.5 m/s)
Visibility: 6 or more miles (10+ km)
Ceiling: 5000 feet AGL
Clouds: scattered clouds at 2700 feet AGL
scattered clouds at 3800 feet AGL
overcast cloud deck at 5000 feet AGL
Weather: no significant weather observed at this time

METAR text: LFOE 191300Z AUTO 28005KT 250V310 9999 FEW029 BKN036 OVC047 10/04 Q1029 NOSIG
Conditions at: LFOE (EVREUX/FAUVILLE , FR) observed 1300 UTC 19 March 2019
Temperature: 10.0°C (50°F)
Dewpoint: 4.0°C (39°F) [RH = 66%]
Pressure (altimeter): 30.38 inches Hg (1029.0 mb)
Winds: from the W (280 degrees) at 6 MPH (5 knots; 2.6 m/s)
Visibility: 6 or more miles (10+ km)
Ceiling: 3600 feet AGL
Clouds: few clouds at 2900 feet AGL
broken clouds at 3600 feet AGL
overcast cloud deck at 4700 feet AGL
Weather: no significant weather observed at this time

METAR text: LFOE 191230Z AUTO 25004KT 170V320 9999 SCT030 OVC041 10/05 Q1029 NOSIG
Conditions at: LFOE (EVREUX/FAUVILLE , FR) observed 1230 UTC 19 March 2019
Temperature: 10.0°C (50°F)
Dewpoint: 5.0°C (41°F) [RH = 71%]
Pressure (altimeter): 30.38 inches Hg (1029.0 mb)
Winds: from the WSW (250 degrees) at 5 MPH (4 knots; 2.1 m/s)
Visibility: 6 or more miles (10+ km)
Ceiling: 4100 feet AGL
Clouds: scattered clouds at 3000 feet AGL
overcast cloud deck at 4100 feet AGL
Weather: no significant weather observed at this time

METAR text: LFOE 191200Z AUTO 19004KT 160V220 9999 FEW028 SCT037 BKN044 10/04 Q1029 NOSIG
Conditions at: LFOE (EVREUX/FAUVILLE , FR) observed 1200 UTC 19 March 2019
Temperature: 10.0°C (50°F)
Dewpoint: 4.0°C (39°F) [RH = 66%]
Pressure (altimeter): 30.38 inches Hg (1029.0 mb)
Winds: from the S (190 degrees) at 5 MPH (4 knots; 2.1 m/s)
Visibility: 6 or more miles (10+ km)
Ceiling: 4400 feet AGL
Clouds: few clouds at 2800 feet AGL
scattered clouds at 3700 feet AGL
broken clouds at 4400 feet AGL
Weather: no significant weather observed at this time

METAR text: LFOE 191130Z AUTO 20003KT 140V260 9999 BKN026 BKN033 OVC039 10/05 Q1029 NOSIG
Conditions at: LFOE (EVREUX/FAUVILLE , FR) observed 1130 UTC 19 March 2019
Temperature: 10.0°C (50°F)
Dewpoint: 5.0°C (41°F) [RH = 71%]
Pressure (altimeter): 30.38 inches Hg (1029.0 mb)
Winds: from the SSW (200 degrees) at 3 MPH (3 knots; 1.5 m/s)
Visibility: 6 or more miles (10+ km)
Ceiling: 2600 feet AGL
Clouds: broken clouds at 2600 feet AGL
broken clouds at 3300 feet AGL
overcast cloud deck at 3900 feet AGL
Weather: no significant weather observed at this time

METAR text: LFOE 191100Z AUTO VRB02KT 9999 BKN024 OVC030 10/05 Q1029 NOSIG
Conditions at: LFOE (EVREUX/FAUVILLE , FR) observed 1100 UTC 19 March 2019
Temperature: 10.0°C (50°F)
Dewpoint: 5.0°C (41°F) [RH = 71%]
Pressure (altimeter): 30.38 inches Hg (1029.0 mb)
Winds: variable direction winds at 2 MPH (2 knots; 1.0 m/s)
Visibility: 6 or more miles (10+ km)
Ceiling: 2400 feet AGL
Clouds: broken clouds at 2400 feet AGL
overcast cloud deck at 3000 feet AGL
Weather: no significant weather observed at this time

METAR text: LFOE 191030Z AUTO 17003KT 120V200 9999 BKN025 BKN032 BKN038 09/05 Q1029 NOSIG
Conditions at: LFOE (EVREUX/FAUVILLE , FR) observed 1030 UTC 19 March 2019
Temperature: 9.0°C (48°F)
Dewpoint: 5.0°C (41°F) [RH = 76%]
Pressure (altimeter): 30.38 inches Hg (1029.0 mb)
Winds: from the S (170 degrees) at 3 MPH (3 knots; 1.5 m/s)
Visibility: 6 or more miles (10+ km)
Ceiling: 2500 feet AGL
Clouds: broken clouds at 2500 feet AGL
broken clouds at 3200 feet AGL
broken clouds at 3800 feet AGL
Weather: no significant weather observed at this time

METAR text: LFOE 191000Z AUTO 19004KT 160V230 9999 BKN022 BKN028 BKN033 08/04 Q1029 NOSIG
Conditions at: LFOE (EVREUX/FAUVILLE , FR) observed 1000 UTC 19 March 2019
Temperature: 8.0°C (46°F)
Dewpoint: 4.0°C (39°F) [RH = 76%]
Pressure (altimeter): 30.38 inches Hg (1029.0 mb)
Winds: from the S (190 degrees) at 5 MPH (4 knots; 2.1 m/s)
Visibility: 6 or more miles (10+ km)
Ceiling: 2200 feet AGL
Clouds: broken clouds at 2200 feet AGL
broken clouds at 2800 feet AGL
broken clouds at 3300 feet AGL
Weather: no significant weather observed at this time

METAR text: LFOE 190930Z AUTO 23003KT 9999 FEW014 08/05 Q1029 NOSIG
Conditions at: LFOE (EVREUX/FAUVILLE , FR) observed 0930 UTC 19 March 2019
Temperature: 8.0°C (46°F)
Dewpoint: 5.0°C (41°F) [RH = 81%]
Pressure (altimeter): 30.38 inches Hg (1029.0 mb)
Winds: from the SW (230 degrees) at 3 MPH (3 knots; 1.5 m/s)
Visibility: 6 or more miles (10+ km)
Ceiling: at least 12,000 feet AGL
Clouds: few clouds at 1400 feet AGL
Weather: no significant weather observed at this time

METAR text: LFOE 190900Z AUTO VRB03KT 9999 FEW011 SCT046 08/05 Q1028 NOSIG
Conditions at: LFOE (EVREUX/FAUVILLE , FR) observed 0900 UTC 19 March 2019
Temperature: 8.0°C (46°F)
Dewpoint: 5.0°C (41°F) [RH = 81%]
Pressure (altimeter): 30.35 inches Hg (1028.0 mb)
Winds: variable direction winds at 3 MPH (3 knots; 1.5 m/s)
Visibility: 6 or more miles (10+ km)
Ceiling: at least 12,000 feet AGL
Clouds: few clouds at 1100 feet AGL
scattered clouds at 4600 feet AGL
Weather: no significant weather observed at this time

METAR text: LFOE 190830Z AUTO 24003KT 9999 BKN045 07/07 Q1028 TEMPO BKN010
Conditions at: LFOE (EVREUX/FAUVILLE , FR) observed 0830 UTC 19 March 2019
Temperature: 7.0°C (45°F)
Dewpoint: 7.0°C (45°F) [RH = 100%]
Pressure (altimeter): 30.35 inches Hg (1028.0 mb)
Winds: from the WSW (240 degrees) at 3 MPH (3 knots; 1.5 m/s)
Visibility: 6 or more miles (10+ km)
Ceiling: 4500 feet AGL
Clouds: broken clouds at 4500 feet AGL
Weather: no significant weather observed at this time

METAR text: LFOE 190800Z AUTO VRB03KT 9999 OVC044 07/07 Q1028 TEMPO BKN010
Conditions at: LFOE (EVREUX/FAUVILLE , FR) observed 0800 UTC 19 March 2019
Temperature: 7.0°C (45°F)
Dewpoint: 7.0°C (45°F) [RH = 100%]
Pressure (altimeter): 30.35 inches Hg (1028.0 mb)
Winds: variable direction winds at 3 MPH (3 knots; 1.5 m/s)
Visibility: 6 or more miles (10+ km)
Ceiling: 4400 feet AGL
Clouds: overcast cloud deck at 4400 feet AGL
Weather: no significant weather observed at this time

METAR text: LFOE 190730Z AUTO 22003KT 7000 FEW021 BKN043 04/04 Q1028 TEMPO BKN010
Conditions at: LFOE (EVREUX/FAUVILLE , FR) observed 0730 UTC 19 March 2019
Temperature: 4.0°C (39°F)
Dewpoint: 4.0°C (39°F) [RH = 100%]
Pressure (altimeter): 30.35 inches Hg (1028.0 mb)
Winds: from the SW (220 degrees) at 3 MPH (3 knots; 1.5 m/s)
Visibility: 4 miles ( 7 km)
Ceiling: 4300 feet AGL
Clouds: few clouds at 2100 feet AGL
broken clouds at 4300 feet AGL
Weather: no significant weather observed at this time

METAR text: LFOE 190700Z AUTO 20003KT 6000 SCT022 OVC041 03/03 Q1028 TEMPO BKN010
Conditions at: LFOE (EVREUX/FAUVILLE , FR) observed 0700 UTC 19 March 2019
Temperature: 3.0°C (37°F)
Dewpoint: 3.0°C (37°F) [RH = 100%]
Pressure (altimeter): 30.35 inches Hg (1028.0 mb)
Winds: from the SSW (200 degrees) at 3 MPH (3 knots; 1.5 m/s)
Visibility: 4 miles ( 6 km)
Ceiling: 4100 feet AGL
Clouds: scattered clouds at 2200 feet AGL
overcast cloud deck at 4100 feet AGL
Weather: no significant weather observed at this time

METAR text: LFOE 190630Z AUTO 19003KT 7000 BKN022 OVC042 03/02 Q1027 TEMPO BKN010
Conditions at: LFOE (EVREUX/FAUVILLE , FR) observed 0630 UTC 19 March 2019
Temperature: 3.0°C (37°F)
Dewpoint: 2.0°C (36°F) [RH = 93%]
Pressure (altimeter): 30.32 inches Hg (1027.0 mb)
Winds: from the S (190 degrees) at 3 MPH (3 knots; 1.5 m/s)
Visibility: 4 miles ( 7 km)
Ceiling: 2200 feet AGL
Clouds: broken clouds at 2200 feet AGL
overcast cloud deck at 4200 feet AGL
Weather: no significant weather observed at this time

METAR text: LFOE 190600Z AUTO 19003KT 8000 BKN018 OVC023 02/02 Q1027 TEMPO 0500 BCFG VV///
Conditions at: LFOE (EVREUX/FAUVILLE , FR) observed 0600 UTC 19 March 2019
Temperature: 2.0°C (36°F)
Dewpoint: 2.0°C (36°F) [RH = 100%]
Pressure (altimeter): 30.32 inches Hg (1027.0 mb)
Winds: from the S (190 degrees) at 3 MPH (3 knots; 1.5 m/s)
Visibility: 5 miles ( 8 km)
Ceiling: 1800 feet AGL
Clouds: broken clouds at 1800 feet AGL
overcast cloud deck at 2300 feet AGL
Weather: no significant weather observed at this time

METAR text: LFOE 190530Z AUTO 17002KT 7000 OVC015 01/01 Q1027 TEMPO 0500 BCFG VV///
Conditions at: LFOE (EVREUX/FAUVILLE , FR) observed 0530 UTC 19 March 2019
Temperature: 1.0°C (34°F)
Dewpoint: 1.0°C (34°F) [RH = 100%]
Pressure (altimeter): 30.32 inches Hg (1027.0 mb)
Winds: from the S (170 degrees) at 2 MPH (2 knots; 1.0 m/s)
Visibility: 4 miles ( 7 km)
Ceiling: 1500 feet AGL
Clouds: overcast cloud deck at 1500 feet AGL
Weather: no significant weather observed at this time

METAR text: LFOE 190500Z AUTO 19003KT 4800 0800 R22/1100D BCFG FEW003 SCT014 OVC041 01/01 Q1027 TEMPO 0500 BCFG VV///
Conditions at: LFOE (EVREUX/FAUVILLE , FR) observed 0500 UTC 19 March 2019
Temperature: 1.0°C (34°F)
Dewpoint: 1.0°C (34°F) [RH = 100%]
Pressure (altimeter): 30.32 inches Hg (1027.0 mb)
Winds: from the S (190 degrees) at 3 MPH (3 knots; 1.5 m/s)
Visibility: 2.98 miles (4.80 km)
Ceiling: 4100 feet AGL
Clouds: few clouds at 300 feet AGL
scattered clouds at 1400 feet AGL
overcast cloud deck at 4100 feet AGL
Weather: BCFG  (patches of fog)

METAR text: LFOE 190430Z AUTO 20003KT 1500 1100 R22/1000U BR VV/// 00/00 Q1027 TEMPO 0500 BCFG
Conditions at: LFOE (EVREUX/FAUVILLE , FR) observed 0430 UTC 19 March 2019
Temperature: 0.0°C (32°F)
Dewpoint: 0.0°C (32°F) [RH = 100%]
Pressure (altimeter): 30.32 inches Hg (1027.0 mb)
Winds: from the SSW (200 degrees) at 3 MPH (3 knots; 1.5 m/s)
Visibility: 0.93 miles (1.50 km)
Ceiling: indefinite ceiling with vertical visibility of 0 feet AGL
Clouds: obscured sky
Weather: BR  (mist)

METAR text: LFOE 190400Z AUTO 00000KT 2700 0550 R22/0500D BCFG VV/// 01/01 Q1026 TEMPO 0500 BCFG
Conditions at: LFOE (EVREUX/FAUVILLE , FR) observed 0400 UTC 19 March 2019
Temperature: 1.0°C (34°F)
Dewpoint: 1.0°C (34°F) [RH = 100%]
Pressure (altimeter): 30.30 inches Hg (1026.0 mb)
Winds: calm
Visibility: 1.68 miles (2.70 km)
Ceiling: indefinite ceiling with vertical visibility of 0 feet AGL
Clouds: obscured sky
Weather: BCFG  (patches of fog)

Forecast for: LFOE (EVREUX/FAUVILLE , FR)
Text: TAF LFOE 201400Z 2015/2115 VRB02KT 9999 OVC040
Forecast period: 1500 UTC 20 March 2019 to 0000 UTC 21 March 2019
Forecast type: FROM: standard forecast or significant change
Winds: variable direction winds at 2 MPH (2 knots; 1.0 m/s)
Visibility: 6 or more miles 10+ km)
Ceiling: 4000 feet AGL
Clouds: overcast cloud deck at 4000 feet AGL
Weather: no significant weather forecast for this period
Text: BECMG 2100/2102 3000 BR
Forecast period: 0000 to 0200 UTC 21 March 2019
Forecast type: BECOMING: Conditions expected to become as follows by 0200 UTC 21 March 2019
Winds: variable direction winds at 2 MPH (2 knots; 1.0 m/s)
Visibility: 1.86 miles (2.99 km)
Ceiling: 4000 feet AGL
Clouds: overcast cloud deck at 4000 feet AGL
Weather: BR  (mist)
Text: BECMG 2102/2105 0800 FG VV///
Forecast period: 0200 to 0700 UTC 21 March 2019
Forecast type: BECOMING: Conditions expected to become as follows by 0500 UTC 21 March 2019
Winds: variable direction winds at 2 MPH (2 knots; 1.0 m/s)
Visibility: 0.50 miles (0.80 km)
Ceiling: 4000 feet AGL
Clouds: overcast cloud deck at 4000 feet AGL
Weather: FG  (fog)
Text: PROB30
Forecast period: 0400 to 0700 UTC 21 March 2019
Forecast type: TEMPORARY: The following changes expected for less than half the time period
Visibility: 0.31 miles (0.50 km)
Ceiling: unknown
Clouds: missing
Weather: no significant weather forecast for this period
Text: TEMPO 2104/2107 0500
Forecast period: 0700 to 0900 UTC 21 March 2019
Forecast type: BECOMING: Conditions expected to become as follows by 0900 UTC 21 March 2019
Winds: variable direction winds at 2 MPH (2 knots; 1.0 m/s)
Visibility: 1.86 miles (2.99 km)
Ceiling: 200 feet AGL
Clouds: broken clouds at 200 feet AGL
Weather: BR  (mist)
Text: BECMG 2107/2109 3000 BR BKN002
Forecast period: 0900 to 1500 UTC 21 March 2019
Forecast type: BECOMING: Conditions expected to become as follows by 1200 UTC 21 March 2019
Winds: variable direction winds at 2 MPH (2 knots; 1.0 m/s)
Visibility: 6 miles (9 km)
Ceiling: at least 12,000 feet AGL
Clouds: scattered clouds at 1500 feet AGL
Weather: NSW  (no significant weather)